createdAt,value
2019-04-11T00:01:33.994Z,53.42
2019-04-11T00:03:51.462Z,54.08
2019-04-11T00:06:20.242Z,54.32
2019-04-11T00:08:47.324Z,53.91
2019-04-11T00:11:14.470Z,53.78
2019-04-11T00:13:41.562Z,53.90
2019-04-11T00:16:09.085Z,53.41
2019-04-11T00:18:36.322Z,53.54
2019-04-11T00:21:04.496Z,53.35
2019-04-11T00:23:32.380Z,53.25
2019-04-11T00:26:00.052Z,53.22
2019-04-11T00:28:27.856Z,52.92
2019-04-11T00:30:55.014Z,53.18
2019-04-11T00:33:24.701Z,53.70
2019-04-11T00:35:53.092Z,53.44
2019-04-11T00:38:19.956Z,53.13
2019-04-11T00:40:47.012Z,53.30
2019-04-11T00:43:26.761Z,52.64
2019-04-11T00:45:43.578Z,52.85
2019-04-11T00:48:11.336Z,52.56
2019-04-11T00:50:39.151Z,53.70
2019-04-11T00:53:06.260Z,54.53
2019-04-11T00:55:33.942Z,55.20
2019-04-11T00:58:01.374Z,56.02
2019-04-11T01:00:29.177Z,57.27
2019-04-11T01:02:56.387Z,56.90
2019-04-11T01:05:23.609Z,57.45
2019-04-11T01:07:51.311Z,57.87
2019-04-11T01:10:18.538Z,58.54
2019-04-11T01:12:45.546Z,58.78
2019-04-11T01:15:15.467Z,58.71
2019-04-11T01:17:45.476Z,58.19
2019-04-11T01:20:13.302Z,57.95
2019-04-11T01:22:40.616Z,58.25
2019-04-11T01:25:10.538Z,58.27
2019-04-11T01:27:39.404Z,58.32
2019-04-11T01:30:09.278Z,58.27
2019-04-11T01:32:36.584Z,57.35
2019-04-11T01:35:04.824Z,58.14
2019-04-11T01:37:32.070Z,58.89
2019-04-11T01:40:01.927Z,58.97
2019-04-11T01:42:31.183Z,58.74
2019-04-11T01:44:58.411Z,57.35
2019-04-11T01:47:28.934Z,59.66
2019-04-11T01:49:56.620Z,58.81
2019-04-11T01:52:24.524Z,57.91
2019-04-11T01:54:52.163Z,58.10
2019-04-11T01:57:20.059Z,58.28
2019-04-11T01:59:47.905Z,57.37
2019-04-11T02:02:32.671Z,58.36
2019-04-11T02:05:08.366Z,57.38
2019-04-11T02:07:36.464Z,57.82
2019-04-11T02:10:05.426Z,58.33
2019-04-11T02:12:32.474Z,58.63
2019-04-11T02:14:59.806Z,57.27
2019-04-11T02:17:26.987Z,58.72
2019-04-11T02:19:54.040Z,59.89
2019-04-11T02:22:40.410Z,59.31
2019-04-11T02:25:25.218Z,60.37
2019-04-11T02:27:52.555Z,59.34
2019-04-11T02:30:22.244Z,59.49
2019-04-11T02:32:49.864Z,59.19
2019-04-11T02:35:19.844Z,58.06
2019-04-11T02:37:49.924Z,58.48
2019-04-11T02:40:17.505Z,58.64
2019-04-11T02:42:47.485Z,58.02
2019-04-11T02:45:27.146Z,58.32
2019-04-11T02:47:46.595Z,58.11
2019-04-11T02:50:16.418Z,57.91
2019-04-11T02:52:42.287Z,58.74
2019-04-11T02:55:12.994Z,58.91
2019-04-11T02:57:40.868Z,58.65
2019-04-11T03:00:11.113Z,59.34
2019-04-11T03:02:39.505Z,59.37
2019-04-11T03:05:09.285Z,59.25
2019-04-11T03:07:36.113Z,59.63
2019-04-11T03:10:07.074Z,59.57
2019-04-11T03:12:36.116Z,59.72
2019-04-11T03:15:23.996Z,59.66
2019-04-11T03:17:42.209Z,60.07
2019-04-11T03:20:18.411Z,60.21
2019-04-11T03:22:34.984Z,59.88
2019-04-11T03:25:03.147Z,60.27
2019-04-11T03:27:32.423Z,60.51
2019-04-11T03:30:02.744Z,60.46
2019-04-11T03:33:18.667Z,61.73
2019-04-11T03:35:54.737Z,60.73
2019-04-11T03:37:53.597Z,61.77
2019-04-11T03:40:19.543Z,60.85
2019-04-11T03:42:45.226Z,61.08
2019-04-11T03:45:22.624Z,61.46
2019-04-11T03:47:37.412Z,60.98
2019-04-11T03:50:05.356Z,60.94
2019-04-11T03:52:25.853Z,62.12
2019-04-11T03:54:53.986Z,62.44
2019-04-11T03:57:21.699Z,62.52
2019-04-11T03:59:49.614Z,62.18
2019-04-11T04:02:17.000Z,61.88
2019-04-11T04:04:45.664Z,62.24
2019-04-11T04:07:16.434Z,61.54
2019-04-11T04:09:43.807Z,61.70
2019-04-11T04:12:12.047Z,62.41
2019-04-11T04:14:44.593Z,62.26
2019-04-11T04:17:30.824Z,62.29
2019-04-11T04:20:02.307Z,62.47
2019-04-11T04:22:32.265Z,62.63
2019-04-11T04:25:00.935Z,63.72
2019-04-11T04:27:30.343Z,63.91
2019-04-11T04:29:59.933Z,63.65
2019-04-11T04:32:27.861Z,63.75
2019-04-11T04:34:56.220Z,62.93
2019-04-11T04:37:26.717Z,64.02
2019-04-11T04:40:13.201Z,63.70
2019-04-11T04:42:30.821Z,63.73
2019-04-11T04:44:51.130Z,63.55
2019-04-11T04:47:26.488Z,64.00
2019-04-11T04:49:48.190Z,63.94
2019-04-11T04:52:16.445Z,64.33
2019-04-11T04:54:44.380Z,64.04
2019-04-11T04:57:13.083Z,64.50
2019-04-11T04:59:42.328Z,64.62
2019-04-11T05:02:10.981Z,64.43
2019-04-11T05:04:39.792Z,64.99
2019-04-11T05:07:07.412Z,65.78
2019-04-11T05:09:36.061Z,65.84
2019-04-11T05:12:03.543Z,66.28
2019-04-11T05:14:31.686Z,67.16
2019-04-11T05:16:58.681Z,66.84
2019-04-11T05:19:25.668Z,67.87
2019-04-11T05:21:52.577Z,67.29
2019-04-11T05:24:20.731Z,67.04
2019-04-11T05:26:48.171Z,68.07
2019-04-11T05:29:15.259Z,68.87
2019-04-11T05:31:42.770Z,68.83
2019-04-11T05:34:10.006Z,67.31
2019-04-11T05:36:36.741Z,67.45
2019-04-11T05:39:06.619Z,68.16
2019-04-11T05:41:34.032Z,67.05
2019-04-11T05:44:03.525Z,67.31
2019-04-11T05:46:35.379Z,67.32
2019-04-11T05:49:07.551Z,67.28
2019-04-11T05:51:41.010Z,68.71
2019-04-11T05:54:07.370Z,67.98
2019-04-11T05:56:33.756Z,66.73
2019-04-11T05:59:02.941Z,66.63
2019-04-11T06:01:32.090Z,66.89
2019-04-11T06:04:01.980Z,67.93
2019-04-11T06:06:40.305Z,66.93
2019-04-11T06:09:11.733Z,66.79
2019-04-11T06:11:58.026Z,66.57
2019-04-11T06:14:35.817Z,67.40
2019-04-11T06:17:05.179Z,67.93
2019-04-11T06:19:34.489Z,67.54
2019-04-11T06:22:06.662Z,68.28
2019-04-11T06:24:50.895Z,67.42
2019-04-11T06:27:33.734Z,67.65
2019-04-11T06:30:19.986Z,68.74
2019-04-11T06:33:05.802Z,68.86
2019-04-11T06:35:35.787Z,69.11
2019-04-11T06:38:04.585Z,69.38
2019-04-11T06:40:39.325Z,68.51
2019-04-11T06:43:18.761Z,68.86
2019-04-11T06:46:00.729Z,68.65
2019-04-11T06:48:47.601Z,67.95
2019-04-11T06:51:19.922Z,68.25
2019-04-11T06:53:48.793Z,68.75
2019-04-11T06:56:29.375Z,68.84
2019-04-11T06:58:59.622Z,69.48
2019-04-11T07:01:28.609Z,68.92
2019-04-11T07:04:00.852Z,68.84
2019-04-11T07:06:29.791Z,68.76
2019-04-11T07:09:15.242Z,68.46
2019-04-11T07:11:53.217Z,69.11
2019-04-11T07:14:22.487Z,68.98
2019-04-11T07:17:09.585Z,68.59
2019-04-11T07:19:51.701Z,68.81
2019-04-11T07:22:37.259Z,69.44
2019-04-11T07:25:10.355Z,69.47
2019-04-11T07:27:39.322Z,69.52
2019-04-11T07:30:19.256Z,68.68
2019-04-11T07:32:47.674Z,68.29
2019-04-11T07:35:33.673Z,68.66
2019-04-11T07:38:01.153Z,69.72
2019-04-11T07:40:31.420Z,69.39
2019-04-11T07:43:05.828Z,69.62
2019-04-11T07:45:32.268Z,69.01
2019-04-11T07:48:10.829Z,69.36
2019-04-11T07:50:37.881Z,69.08
2019-04-11T07:53:06.934Z,69.24
2019-04-11T07:55:34.530Z,68.60
2019-04-11T07:58:22.286Z,69.21
2019-04-11T08:01:15.251Z,68.98
2019-04-11T08:03:44.735Z,69.43
2019-04-11T08:06:33.308Z,69.31
2019-04-11T08:09:17.664Z,68.98
2019-04-11T08:11:56.182Z,69.89
2019-04-11T08:14:26.590Z,68.79
2019-04-11T08:17:07.554Z,68.84
2019-04-11T08:19:51.558Z,69.96
2019-04-11T08:22:21.557Z,69.17
2019-04-11T08:24:56.753Z,69.24
2019-04-11T08:27:34.021Z,69.39
2019-04-11T08:30:02.806Z,69.76
2019-04-11T08:32:38.010Z,70.27
2019-04-11T08:35:13.196Z,69.94
2019-04-11T08:38:00.943Z,70.60
2019-04-11T08:40:39.313Z,69.91
2019-04-11T08:43:08.418Z,69.31
2019-04-11T08:45:46.997Z,69.53
2019-04-11T08:48:15.007Z,70.20
2019-04-11T08:50:44.944Z,69.36
2019-04-11T08:53:18.697Z,69.15
2019-04-11T08:55:55.780Z,69.65
2019-04-11T08:58:27.318Z,69.45
2019-04-11T09:00:59.299Z,69.28
2019-04-11T09:03:31.435Z,69.11
2019-04-11T09:06:04.282Z,68.14
2019-04-11T09:08:51.518Z,68.33
2019-04-11T09:11:20.576Z,68.43
2019-04-11T09:13:49.589Z,69.93
2019-04-11T09:16:31.892Z,69.51
2019-04-11T09:19:02.192Z,69.27
2019-04-11T09:21:48.732Z,69.44
2019-04-11T09:24:20.450Z,70.57
2019-04-11T09:26:49.870Z,70.34
2019-04-11T09:29:18.726Z,70.99
2019-04-11T09:31:49.375Z,71.70
2019-04-11T09:34:21.758Z,72.75
2019-04-11T09:36:57.483Z,73.12
2019-04-11T09:39:32.615Z,74.05
2019-04-11T09:42:22.726Z,73.96
2019-04-11T09:44:50.956Z,74.60
2019-04-11T09:47:38.370Z,74.83
2019-04-11T09:50:07.735Z,74.32
2019-04-11T09:52:49.556Z,73.78
2019-04-11T09:55:34.210Z,73.42
2019-04-11T09:58:02.785Z,73.48
2019-04-11T10:00:38.921Z,74.17
2019-04-11T10:03:08.748Z,74.67
2019-04-11T10:05:44.808Z,75.05
2019-04-11T10:08:14.828Z,74.62
2019-04-11T10:11:01.777Z,75.64
2019-04-11T10:13:31.033Z,75.83
2019-04-11T10:16:18.050Z,77.29
2019-04-11T10:19:05.493Z,76.45
2019-04-11T10:21:37.612Z,77.73
2019-04-11T10:24:24.240Z,76.50
2019-04-11T10:27:09.685Z,76.66
2019-04-11T10:29:54.687Z,76.24
2019-04-11T10:32:23.581Z,76.57
2019-04-11T10:34:52.786Z,76.47
2019-04-11T10:37:21.116Z,75.88
2019-04-11T10:39:53.673Z,75.83
2019-04-11T10:42:22.191Z,75.81
2019-04-11T10:44:54.116Z,75.30
2019-04-11T10:47:23.090Z,75.66
2019-04-11T10:50:09.112Z,73.93
2019-04-11T10:52:40.950Z,74.74
2019-04-11T10:55:11.404Z,73.52
2019-04-11T10:57:52.664Z,74.17
2019-04-11T11:00:35.592Z,72.43
2019-04-11T11:03:07.776Z,71.20
2019-04-11T11:05:38.241Z,70.46
2019-04-11T11:08:07.116Z,70.11
2019-04-11T11:10:39.656Z,68.87
2019-04-11T11:13:14.357Z,69.53
2019-04-11T11:15:43.950Z,69.22
2019-04-11T11:18:38.207Z,67.60
2019-04-11T11:20:50.150Z,68.49
2019-04-11T11:23:18.331Z,67.95
2019-04-11T11:25:53.930Z,67.59
2019-04-11T11:28:23.778Z,67.36
2019-04-11T11:30:52.580Z,67.32
2019-04-11T11:33:22.196Z,66.20
2019-04-11T11:35:52.463Z,66.53
2019-04-11T11:38:28.155Z,66.18
2019-04-11T11:41:00.517Z,67.05
2019-04-11T11:43:29.234Z,65.55
2019-04-11T11:46:14.653Z,64.86
2019-04-11T11:48:46.273Z,65.71
2019-04-11T11:51:25.640Z,64.34
2019-04-11T11:53:51.542Z,64.42
2019-04-11T11:56:19.734Z,63.91
2019-04-11T11:58:55.391Z,64.46
2019-04-11T12:01:19.908Z,63.71
2019-04-11T12:03:59.251Z,63.54
2019-04-11T12:06:25.187Z,64.19
2019-04-11T12:09:12.571Z,63.77
2019-04-11T12:11:42.186Z,63.74
2019-04-11T12:14:18.064Z,63.05
2019-04-11T12:17:05.134Z,63.46
2019-04-11T12:19:45.694Z,62.91
2019-04-11T12:22:04.858Z,63.21
2019-04-11T12:24:40.523Z,62.24
2019-04-11T12:27:16.440Z,61.84
2019-04-11T12:29:48.803Z,61.80
2019-04-11T12:32:20.027Z,62.77
2019-04-11T12:35:02.191Z,61.97
2019-04-11T12:37:51.802Z,61.12
2019-04-11T12:40:27.830Z,60.33
2019-04-11T12:42:56.008Z,60.86
2019-04-11T12:45:31.006Z,60.40
2019-04-11T12:47:57.988Z,60.37
2019-04-11T12:50:35.853Z,60.83
2019-04-11T12:53:05.763Z,60.10
2019-04-11T12:55:35.253Z,60.09
2019-04-11T12:58:04.414Z,61.29
2019-04-11T13:00:50.051Z,60.70
2019-04-11T13:03:36.336Z,59.90
2019-04-11T13:06:17.378Z,59.28
2019-04-11T13:08:55.547Z,59.46
2019-04-11T13:11:24.229Z,59.54
2019-04-11T13:13:53.499Z,59.35
2019-04-11T13:16:20.935Z,59.50
2019-04-11T13:18:56.272Z,59.89
2019-04-11T13:21:25.538Z,60.23
2019-04-11T13:23:54.617Z,60.06
2019-04-11T13:26:40.214Z,60.59
2019-04-11T13:29:27.654Z,60.35
2019-04-11T13:32:12.933Z,60.11
2019-04-11T13:34:58.584Z,60.27
2019-04-11T13:37:44.060Z,60.29
2019-04-11T13:40:16.256Z,61.01
2019-04-11T13:43:01.921Z,60.83
2019-04-11T13:45:30.750Z,60.31
2019-04-11T13:48:16.592Z,60.90
2019-04-11T13:50:43.634Z,60.80
2019-04-11T13:53:18.534Z,60.52
2019-04-11T13:55:45.575Z,60.66
2019-04-11T13:58:29.767Z,61.06
2019-04-11T14:00:57.214Z,60.95
2019-04-11T14:03:38.457Z,61.06
2019-04-11T14:06:10.515Z,61.65
2019-04-11T14:08:39.483Z,61.88
2019-04-11T14:11:14.931Z,62.02
2019-04-11T14:13:44.957Z,61.53
2019-04-11T14:16:17.990Z,62.03
2019-04-11T14:19:02.476Z,62.41
2019-04-11T14:21:31.930Z,63.13
2019-04-11T14:24:03.247Z,62.27
2019-04-11T14:26:32.494Z,63.17
2019-04-11T14:29:00.950Z,63.39
2019-04-11T14:31:50.915Z,62.18
2019-04-11T14:34:34.994Z,62.70
2019-04-11T14:37:06.880Z,62.77
2019-04-11T14:39:36.011Z,63.62
2019-04-11T14:42:23.784Z,63.17
2019-04-11T14:44:52.543Z,63.22
2019-04-11T14:47:24.547Z,63.29
2019-04-11T14:49:53.347Z,62.90
2019-04-11T14:52:28.095Z,63.85
2019-04-11T14:54:55.257Z,63.65
2019-04-11T14:57:33.298Z,65.15
2019-04-11T15:00:02.219Z,63.52
2019-04-11T15:02:47.447Z,63.52
2019-04-11T15:05:16.290Z,63.57
2019-04-11T15:07:43.709Z,62.62
2019-04-11T15:10:23.233Z,62.80
2019-04-11T15:12:51.038Z,64.16
2019-04-11T15:15:25.934Z,63.26
2019-04-11T15:17:55.855Z,63.35
2019-04-11T15:20:53.848Z,62.96
2019-04-11T15:23:24.254Z,62.93
2019-04-11T15:26:08.856Z,63.36
2019-04-11T15:28:37.957Z,64.22
2019-04-11T15:31:12.876Z,62.95
2019-04-11T15:33:47.703Z,64.55
2019-04-11T15:36:16.871Z,63.14
2019-04-11T15:39:00.932Z,63.44
2019-04-11T15:41:29.853Z,64.03
2019-04-11T15:44:15.164Z,63.91
2019-04-11T15:46:43.266Z,64.67
2019-04-11T15:49:31.294Z,66.10
2019-04-11T15:51:59.668Z,65.79
2019-04-11T15:54:45.350Z,65.70
2019-04-11T15:57:14.165Z,64.89
2019-04-11T15:59:59.757Z,65.68
2019-04-11T16:02:41.007Z,65.11
2019-04-11T16:05:13.473Z,66.41
2019-04-11T16:07:42.579Z,66.52
2019-04-11T16:10:11.892Z,66.21
2019-04-11T16:12:49.618Z,67.91
2019-04-11T16:15:18.207Z,67.35
2019-04-11T16:18:04.131Z,67.57
2019-04-11T16:20:30.974Z,67.61
2019-04-11T16:23:12.636Z,67.71
2019-04-11T16:25:39.794Z,66.97
2019-04-11T16:28:12.138Z,67.68
2019-04-11T16:30:44.204Z,67.07
2019-04-11T16:33:16.297Z,67.70
2019-04-11T16:35:48.175Z,67.22
2019-04-11T16:38:33.767Z,67.60
2019-04-11T16:41:19.144Z,66.75
2019-04-11T16:44:06.229Z,68.82
2019-04-11T16:46:41.372Z,67.55
2019-04-11T16:49:08.341Z,67.14
2019-04-11T16:51:35.620Z,68.07
2019-04-11T16:54:02.660Z,67.92
2019-04-11T16:56:29.626Z,68.55
2019-04-11T16:58:56.624Z,68.65
2019-04-11T17:01:23.831Z,69.34
2019-04-11T17:03:54.804Z,69.31
2019-04-11T17:06:30.937Z,68.72
2019-04-11T17:09:08.771Z,68.70
2019-04-11T17:11:35.727Z,68.68
2019-04-11T17:14:03.054Z,68.39
2019-04-11T17:16:30.914Z,68.71
2019-04-11T17:18:58.835Z,68.60
2019-04-11T17:21:25.763Z,68.97
2019-04-11T17:23:52.696Z,69.38
2019-04-11T17:26:22.897Z,69.74
2019-04-11T17:28:48.599Z,69.87
2019-04-11T17:31:15.523Z,70.68
2019-04-11T17:33:42.559Z,70.92
2019-04-11T17:36:09.563Z,71.19
2019-04-11T17:38:37.147Z,70.82
2019-04-11T17:41:04.816Z,70.85
2019-04-11T17:43:31.733Z,71.21
2019-04-11T17:45:58.755Z,70.69
2019-04-11T17:48:25.829Z,70.84
2019-04-11T17:50:52.814Z,70.61
2019-04-11T17:53:19.558Z,70.50
2019-04-11T17:55:46.630Z,70.41
2019-04-11T17:58:13.656Z,69.99
2019-04-11T18:00:44.735Z,70.02
2019-04-11T18:03:12.494Z,69.99
2019-04-11T18:05:39.686Z,70.04
2019-04-11T18:08:06.698Z,69.88
2019-04-11T18:10:33.856Z,69.75
2019-04-11T18:13:00.932Z,69.89
2019-04-11T18:15:28.857Z,70.00
2019-04-11T18:17:56.765Z,69.96
2019-04-11T18:20:23.790Z,70.13
2019-04-11T18:22:52.234Z,70.18
2019-04-11T18:25:20.960Z,70.28
2019-04-11T18:27:51.650Z,70.30
2019-04-11T18:30:17.542Z,69.83
2019-04-11T18:32:44.992Z,69.83
2019-04-11T18:35:12.089Z,69.61
2019-04-11T18:37:39.122Z,69.73
2019-04-11T18:40:10.174Z,69.33
2019-04-11T18:42:35.841Z,69.24
2019-04-11T18:45:06.152Z,69.26
2019-04-11T18:47:33.081Z,69.31
2019-04-11T18:50:00.124Z,68.53
2019-04-11T18:52:28.988Z,68.59
2019-04-11T18:54:56.189Z,68.45
2019-04-11T18:57:23.164Z,68.17
2019-04-11T18:59:50.196Z,67.96
2019-04-11T19:02:17.311Z,68.68
2019-04-11T19:04:44.342Z,67.83
2019-04-11T19:07:13.313Z,67.21
2019-04-11T19:09:43.447Z,66.90
2019-04-11T19:12:09.532Z,66.82
2019-04-11T19:14:36.457Z,67.00
2019-04-11T19:17:04.555Z,66.00
2019-04-11T19:19:31.591Z,66.10
2019-04-11T19:21:58.607Z,66.29
2019-04-11T19:24:35.084Z,66.76
2019-04-11T19:26:54.439Z,65.33
2019-04-11T19:29:24.783Z,65.66
2019-04-11T19:31:50.533Z,66.14
2019-04-11T19:34:17.446Z,65.71
2019-04-11T19:36:45.491Z,66.54
2019-04-11T19:39:13.899Z,66.51
2019-04-11T19:41:41.309Z,65.64
2019-04-11T19:44:08.420Z,66.05
2019-04-11T19:46:35.343Z,65.79
2019-04-11T19:49:04.301Z,65.70
2019-04-11T19:51:31.426Z,66.41
2019-04-11T19:53:58.185Z,66.12
2019-04-11T19:56:27.321Z,65.86
2019-04-11T19:58:54.414Z,66.19
2019-04-11T20:01:23.515Z,65.68
2019-04-11T20:03:53.824Z,66.70
2019-04-11T20:06:19.248Z,65.78
2019-04-11T20:08:47.791Z,65.58
2019-04-11T20:11:14.758Z,66.16
2019-04-11T20:13:41.712Z,66.62
2019-04-11T20:16:12.223Z,65.94
2019-04-11T20:18:37.237Z,66.00
2019-04-11T20:21:07.233Z,66.88
2019-04-11T20:23:33.536Z,67.12
2019-04-11T20:26:00.512Z,65.75
2019-04-11T20:28:27.475Z,66.62
2019-04-11T20:30:54.366Z,65.64
2019-04-11T20:33:27.250Z,65.78
2019-04-11T20:35:53.445Z,65.76
2019-04-11T20:38:20.534Z,66.71
2019-04-11T20:40:52.478Z,66.45
2019-04-11T20:43:19.438Z,66.30
2019-04-11T20:45:46.452Z,66.59
2019-04-11T20:48:13.373Z,67.01
2019-04-11T20:50:40.183Z,67.83
2019-04-11T20:53:12.533Z,67.42
2019-04-11T20:55:39.078Z,66.59
2019-04-11T20:58:11.075Z,67.59
2019-04-11T21:00:49.629Z,66.82
2019-04-11T21:03:08.620Z,66.24
2019-04-11T21:05:35.888Z,66.25
2019-04-11T21:08:04.968Z,67.75
2019-04-11T21:10:37.679Z,67.51
2019-04-11T21:13:23.037Z,67.18
2019-04-11T21:16:07.940Z,67.03
2019-04-11T21:18:54.461Z,67.35
2019-04-11T21:21:41.078Z,67.08
2019-04-11T21:24:26.272Z,66.14
2019-04-11T21:26:53.293Z,66.64
2019-04-11T21:29:20.270Z,65.37
2019-04-11T21:31:49.488Z,67.17
2019-04-11T21:34:16.592Z,66.49
2019-04-11T21:36:43.696Z,65.01
2019-04-11T21:39:10.672Z,66.12
2019-04-11T21:41:37.758Z,64.82
2019-04-11T21:44:06.185Z,64.35
2019-04-11T21:46:37.040Z,64.42
2019-04-11T21:49:06.085Z,63.72
2019-04-11T21:51:31.349Z,64.19
2019-04-11T21:53:58.306Z,64.56
2019-04-11T21:56:25.307Z,64.59
2019-04-11T21:58:52.320Z,64.69
2019-04-11T22:01:24.875Z,66.26
2019-04-11T22:03:56.837Z,65.34
2019-04-11T22:06:20.954Z,64.71
2019-04-11T22:08:47.872Z,65.01
2019-04-11T22:11:14.866Z,65.40
2019-04-11T22:13:43.186Z,65.62
2019-04-11T22:16:13.269Z,66.22
2019-04-11T22:18:39.078Z,65.88
2019-04-11T22:21:06.082Z,65.84
2019-04-11T22:23:32.916Z,65.93
2019-04-11T22:25:59.813Z,66.14
2019-04-11T22:28:26.570Z,66.22
2019-04-11T22:30:55.065Z,66.24
2019-04-11T22:33:28.318Z,66.36
2019-04-11T22:35:57.001Z,66.55
2019-04-11T22:38:25.107Z,66.56
2019-04-11T22:40:53.643Z,66.67
2019-04-11T22:43:24.900Z,66.83
2019-04-11T22:45:54.078Z,66.91
2019-04-11T22:48:21.066Z,67.48
2019-04-11T22:50:48.000Z,67.97
2019-04-11T22:53:14.935Z,68.42
2019-04-11T22:55:41.916Z,67.87
2019-04-11T22:58:09.017Z,67.69
2019-04-11T23:00:39.396Z,67.04
2019-04-11T23:03:09.007Z,67.61
2019-04-11T23:05:36.180Z,67.63
2019-04-11T23:08:03.300Z,67.10
2019-04-11T23:10:30.226Z,67.63
2019-04-11T23:12:57.238Z,67.37
2019-04-11T23:15:24.161Z,68.68
2019-04-11T23:17:51.045Z,68.28
2019-04-11T23:20:17.869Z,68.15
2019-04-11T23:22:44.853Z,68.14
2019-04-11T23:25:11.721Z,68.29
2019-04-11T23:27:38.773Z,68.57
2019-04-11T23:30:06.491Z,68.92
2019-04-11T23:32:33.583Z,69.28
2019-04-11T23:35:00.487Z,69.60
2019-04-11T23:37:27.383Z,69.55
2019-04-11T23:39:54.317Z,69.96
2019-04-11T23:42:21.340Z,70.01
2019-04-11T23:44:50.572Z,70.20
2019-04-11T23:47:17.495Z,71.10
2019-04-11T23:49:44.421Z,70.73
2019-04-11T23:52:11.313Z,71.53
2019-04-11T23:54:38.134Z,72.42
2019-04-11T23:57:05.221Z,71.89
2019-04-11T23:59:32.825Z,71.36
